sensor_id;sensor_type;location;lat;lon;timestamp;pressure;altitude;pressure_sealevel;temperature;humidity
61697;BME280;47610;52.252;20.922;2023-04-03T00:01:02;100793.17;;;1.42;100.00
61697;BME280;47610;52.252;20.922;2023-04-03T00:06:08;100795.90;;;1.31;100.00
61697;BME280;47610;52.252;20.922;2023-04-03T00:11:12;100804.87;;;1.19;100.00
61697;BME280;47610;52.252;20.922;2023-04-03T00:16:16;100805.79;;;1.05;100.00
61697;BME280;47610;52.252;20.922;2023-04-03T00:21:19;100804.27;;;0.94;100.00
61697;BME280;47610;52.252;20.922;2023-04-03T00:26:22;100809.11;;;0.83;100.00
61697;BME280;47610;52.252;20.922;2023-04-03T00:31:26;100812.34;;;0.72;100.00
61697;BME280;47610;52.252;20.922;2023-04-03T00:36:31;100816.34;;;0.62;100.00
61697;BME280;47610;52.252;20.922;2023-04-03T00:41:34;100814.70;;;0.53;100.00
61697;BME280;47610;52.252;20.922;2023-04-03T00:46:38;100814.46;;;0.43;100.00
61697;BME280;47610;52.252;20.922;2023-04-03T00:51:44;100817.66;;;0.35;100.00
61697;BME280;47610;52.252;20.922;2023-04-03T00:56:49;100817.75;;;0.28;100.00
61697;BME280;47610;52.252;20.922;2023-04-03T01:01:56;100823.55;;;0.20;100.00
61697;BME280;47610;52.252;20.922;2023-04-03T01:07:03;100826.37;;;0.12;100.00
61697;BME280;47610;52.252;20.922;2023-04-03T01:12:18;100830.86;;;0.06;100.00
61697;BME280;47610;52.252;20.922;2023-04-03T01:17:32;100840.30;;;-0.01;100.00
61697;BME280;47610;52.252;20.922;2023-04-03T01:22:42;100849.69;;;-0.08;100.00
61697;BME280;47610;52.252;20.922;2023-04-03T01:27:55;100855.48;;;-0.15;100.00
61697;BME280;47610;52.252;20.922;2023-04-03T01:32:59;100860.67;;;-0.20;100.00
61697;BME280;47610;52.252;20.922;2023-04-03T01:38:03;100865.05;;;-0.25;100.00
61697;BME280;47610;52.252;20.922;2023-04-03T01:43:06;100869.36;;;-0.31;100.00
61697;BME280;47610;52.252;20.922;2023-04-03T01:48:09;100872.17;;;-0.36;100.00
61697;BME280;47610;52.252;20.922;2023-04-03T01:53:13;100874.37;;;-0.40;100.00
61697;BME280;47610;52.252;20.922;2023-04-03T01:58:17;100873.87;;;-0.45;100.00
61697;BME280;47610;52.252;20.922;2023-04-03T02:03:20;100881.67;;;-0.50;100.00
61697;BME280;47610;52.252;20.922;2023-04-03T02:08:25;100886.50;;;-0.54;100.00
61697;BME280;47610;52.252;20.922;2023-04-03T02:13:28;100890.42;;;-0.59;100.00
61697;BME280;47610;52.252;20.922;2023-04-03T02:18:31;100888.80;;;-0.64;100.00
61697;BME280;47610;52.252;20.922;2023-04-03T02:23:35;100897.02;;;-0.68;100.00
61697;BME280;47610;52.252;20.922;2023-04-03T02:33:40;100898.59;;;-0.76;100.00
61697;BME280;47610;52.252;20.922;2023-04-03T02:38:44;100900.05;;;-0.85;100.00
61697;BME280;47610;52.252;20.922;2023-04-03T02:43:47;100906.97;;;-0.87;100.00
61697;BME280;47610;52.252;20.922;2023-04-03T02:48:50;100910.86;;;-0.91;100.00
61697;BME280;47610;52.252;20.922;2023-04-03T02:53:54;100916.07;;;-0.94;100.00
61697;BME280;47610;52.252;20.922;2023-04-03T02:58:58;100922.27;;;-0.97;100.00
61697;BME280;47610;52.252;20.922;2023-04-03T03:04:01;100917.50;;;-0.98;100.00
61697;BME280;47610;52.252;20.922;2023-04-03T03:09:04;100915.77;;;-0.97;100.00
61697;BME280;47610;52.252;20.922;2023-04-03T03:14:08;100916.02;;;-1.01;100.00
61697;BME280;47610;52.252;20.922;2023-04-03T03:19:12;100917.13;;;-1.04;100.00
61697;BME280;47610;52.252;20.922;2023-04-03T03:24:15;100922.16;;;-1.10;100.00
61697;BME280;47610;52.252;20.922;2023-04-03T03:29:19;100925.54;;;-1.18;100.00
61697;BME280;47610;52.252;20.922;2023-04-03T03:34:22;100927.20;;;-1.26;100.00
61697;BME280;47610;52.252;20.922;2023-04-03T03:39:27;100926.97;;;-1.33;100.00
61697;BME280;47610;52.252;20.922;2023-04-03T03:44:34;100927.38;;;-1.39;100.00
61697;BME280;47610;52.252;20.922;2023-04-03T03:49:37;100927.70;;;-1.45;100.00
61697;BME280;47610;52.252;20.922;2023-04-03T03:54:40;100925.74;;;-1.50;100.00
61697;BME280;47610;52.252;20.922;2023-04-03T03:59:43;100925.19;;;-1.55;100.00
61697;BME280;47610;52.252;20.922;2023-04-03T04:04:48;100926.16;;;-1.58;100.00
61697;BME280;47610;52.252;20.922;2023-04-03T04:09:52;100931.37;;;-1.60;100.00
61697;BME280;47610;52.252;20.922;2023-04-03T04:14:55;100935.30;;;-1.61;100.00
61697;BME280;47610;52.252;20.922;2023-04-03T04:19:59;100942.05;;;-1.60;100.00
61697;BME280;47610;52.252;20.922;2023-04-03T04:25:02;100938.73;;;-1.59;100.00
61697;BME280;47610;52.252;20.922;2023-04-03T04:30:12;100948.04;;;-1.56;100.00
61697;BME280;47610;52.252;20.922;2023-04-03T04:35:17;100951.42;;;-1.49;100.00
61697;BME280;47610;52.252;20.922;2023-04-03T04:40:21;100956.23;;;-1.43;100.00
61697;BME280;47610;52.252;20.922;2023-04-03T04:45:24;100965.66;;;-1.36;100.00
61697;BME280;47610;52.252;20.922;2023-04-03T04:50:27;100970.56;;;-1.27;100.00
61697;BME280;47610;52.252;20.922;2023-04-03T04:55:31;100974.53;;;-1.15;100.00
61697;BME280;47610;52.252;20.922;2023-04-03T05:00:34;100979.98;;;0.01;100.00
61697;BME280;47610;52.252;20.922;2023-04-03T05:05:38;100989.28;;;3.85;100.00
61697;BME280;47610;52.252;20.922;2023-04-03T05:10:42;101000.48;;;7.37;100.00
61697;BME280;47610;52.252;20.922;2023-04-03T05:15:46;101005.88;;;9.79;95.27
61697;BME280;47610;52.252;20.922;2023-04-03T05:20:52;101005.60;;;11.00;80.88
61697;BME280;47610;52.252;20.922;2023-04-03T05:25:55;101011.95;;;12.09;73.05
61697;BME280;47610;52.252;20.922;2023-04-03T05:30:59;101014.19;;;12.16;63.52
61697;BME280;47610;52.252;20.922;2023-04-03T05:36:06;101022.53;;;11.63;60.89
61697;BME280;47610;52.252;20.922;2023-04-03T05:41:11;101025.31;;;11.11;58.22
61697;BME280;47610;52.252;20.922;2023-04-03T05:46:13;101028.76;;;9.89;60.60
61697;BME280;47610;52.252;20.922;2023-04-03T05:51:19;101036.40;;;8.61;63.21
61697;BME280;47610;52.252;20.922;2023-04-03T05:56:23;101033.28;;;7.12;65.86
61697;BME280;47610;52.252;20.922;2023-04-03T06:01:27;101039.28;;;5.79;71.53
61697;BME280;47610;52.252;20.922;2023-04-03T06:12:08;101041.41;;;7.48;75.09
61697;BME280;47610;52.252;20.922;2023-04-03T06:17:11;101048.27;;;10.08;64.44
61697;BME280;47610;52.252;20.922;2023-04-03T06:22:16;101052.61;;;10.09;59.42
61697;BME280;47610;52.252;20.922;2023-04-03T06:27:21;101059.46;;;10.37;56.68
61697;BME280;47610;52.252;20.922;2023-04-03T06:32:24;101063.09;;;10.16;56.64
61697;BME280;47610;52.252;20.922;2023-04-03T06:37:28;101067.92;;;9.81;57.02
61697;BME280;47610;52.252;20.922;2023-04-03T06:42:31;101071.69;;;11.43;54.92
61697;BME280;47610;52.252;20.922;2023-04-03T06:47:37;101075.03;;;14.77;48.38
61697;BME280;47610;52.252;20.922;2023-04-03T06:52:41;101088.83;;;18.83;42.10
61697;BME280;47610;52.252;20.922;2023-04-03T06:57:43;101093.58;;;21.45;34.03
61697;BME280;47610;52.252;20.922;2023-04-03T07:02:46;101099.55;;;20.51;29.91
61697;BME280;47610;52.252;20.922;2023-04-03T07:07:49;101102.33;;;19.85;28.20
61697;BME280;47610;52.252;20.922;2023-04-03T07:12:53;101100.09;;;17.76;29.03
61697;BME280;47610;52.252;20.922;2023-04-03T07:17:56;101100.43;;;19.00;29.66
61697;BME280;47610;52.252;20.922;2023-04-03T07:23:00;101117.33;;;23.03;26.65
61697;BME280;47610;52.252;20.922;2023-04-03T07:28:04;101120.27;;;26.12;23.76
61697;BME280;47610;52.252;20.922;2023-04-03T07:33:07;101125.15;;;27.43;20.44
61697;BME280;47610;52.252;20.922;2023-04-03T07:38:11;101124.02;;;27.06;19.09
61697;BME280;47610;52.252;20.922;2023-04-03T07:43:15;101129.17;;;27.71;19.83
61697;BME280;47610;52.252;20.922;2023-04-03T07:48:21;101135.52;;;29.78;19.18
61697;BME280;47610;52.252;20.922;2023-04-03T07:53:26;101135.45;;;30.72;16.88
61697;BME280;47610;52.252;20.922;2023-04-03T07:58:29;101131.26;;;30.86;15.39
61697;BME280;47610;52.252;20.922;2023-04-03T08:03:39;101126.02;;;30.92;15.19
61697;BME280;47610;52.252;20.922;2023-04-03T08:08:42;101124.14;;;30.45;15.06
61697;BME280;47610;52.252;20.922;2023-04-03T08:13:45;101131.52;;;31.14;14.92
61697;BME280;47610;52.252;20.922;2023-04-03T08:18:50;101133.50;;;32.90;13.64
61697;BME280;47610;52.252;20.922;2023-04-03T08:23:54;101131.19;;;33.21;13.07
61697;BME280;47610;52.252;20.922;2023-04-03T08:28:57;101128.20;;;34.39;12.59
61697;BME280;47610;52.252;20.922;2023-04-03T08:34:00;101137.09;;;34.83;11.55
61697;BME280;47610;52.252;20.922;2023-04-03T08:39:04;101137.52;;;35.16;11.66
61697;BME280;47610;52.252;20.922;2023-04-03T08:44:17;101138.48;;;35.73;11.73
61697;BME280;47610;52.252;20.922;2023-04-03T08:49:27;101143.45;;;34.78;10.83
61697;BME280;47610;52.252;20.922;2023-04-03T08:54:33;101129.50;;;34.42;10.91
61697;BME280;47610;52.252;20.922;2023-04-03T08:59:40;101135.27;;;35.12;10.75
61697;BME280;47610;52.252;20.922;2023-04-03T09:04:44;101140.09;;;36.74;10.31
61697;BME280;47610;52.252;20.922;2023-04-03T09:09:49;101143.30;;;36.83;10.04
61697;BME280;47610;52.252;20.922;2023-04-03T09:15:00;101134.70;;;35.24;9.89
61697;BME280;47610;52.252;20.922;2023-04-03T09:20:14;101132.33;;;32.10;10.29
61697;BME280;47610;52.252;20.922;2023-04-03T09:25:24;101133.84;;;32.97;10.92
61697;BME280;47610;52.252;20.922;2023-04-03T09:30:30;101131.44;;;34.79;10.29
61697;BME280;47610;52.252;20.922;2023-04-03T09:35:35;101131.79;;;35.59;9.81
61697;BME280;47610;52.252;20.922;2023-04-03T09:40:40;101131.81;;;36.48;9.81
61697;BME280;47610;52.252;20.922;2023-04-03T09:45:47;101137.73;;;37.46;9.49
61697;BME280;47610;52.252;20.922;2023-04-03T09:51:01;101134.35;;;36.42;9.18
61697;BME280;47610;52.252;20.922;2023-04-03T09:56:22;101135.86;;;35.34;9.61
61697;BME280;47610;52.252;20.922;2023-04-03T10:01:30;101132.66;;;33.87;9.76
61697;BME280;47610;52.252;20.922;2023-04-03T10:06:37;101128.28;;;29.82;10.96
61697;BME280;47610;52.252;20.922;2023-04-03T10:12:00;101122.68;;;24.65;12.76
61697;BME280;47610;52.252;20.922;2023-04-03T10:17:17;101123.63;;;20.94;15.05
61697;BME280;47610;52.252;20.922;2023-04-03T10:22:32;101125.41;;;19.70;15.96
61697;BME280;47610;52.252;20.922;2023-04-03T10:27:53;101119.11;;;21.71;15.69
61697;BME280;47610;52.252;20.922;2023-04-03T10:33:11;101112.55;;;22.79;15.50
61697;BME280;47610;52.252;20.922;2023-04-03T10:38:29;101113.20;;;21.85;15.20
61697;BME280;47610;52.252;20.922;2023-04-03T10:43:41;101110.60;;;21.65;15.45
61697;BME280;47610;52.252;20.922;2023-04-03T10:48:58;101102.52;;;18.36;16.94
61697;BME280;47610;52.252;20.922;2023-04-03T10:54:11;101103.07;;;15.10;18.95
61697;BME280;47610;52.252;20.922;2023-04-03T10:59:30;101099.47;;;13.26;21.07
61697;BME280;47610;52.252;20.922;2023-04-03T11:04:39;101099.55;;;12.23;23.29
61697;BME280;47610;52.252;20.922;2023-04-03T11:09:46;101094.84;;;11.55;24.14
61697;BME280;47610;52.252;20.922;2023-04-03T11:14:53;101081.31;;;10.93;25.00
61697;BME280;47610;52.252;20.922;2023-04-03T11:20:03;101087.93;;;10.51;26.12
61697;BME280;47610;52.252;20.922;2023-04-03T11:25:17;101083.61;;;10.03;27.47
61697;BME280;47610;52.252;20.922;2023-04-03T11:30:25;101082.02;;;9.83;27.83
61697;BME280;47610;52.252;20.922;2023-04-03T11:35:32;101080.98;;;9.39;28.53
61697;BME280;47610;52.252;20.922;2023-04-03T11:40:40;101078.41;;;9.09;29.02
61697;BME280;47610;52.252;20.922;2023-04-03T11:45:58;101068.91;;;9.00;29.52
61697;BME280;47610;52.252;20.922;2023-04-03T11:51:02;101067.01;;;8.73;30.50
61697;BME280;47610;52.252;20.922;2023-04-03T11:56:32;101067.73;;;8.39;31.79
61697;BME280;47610;52.252;20.922;2023-04-03T12:01:47;101068.56;;;8.18;32.21
61697;BME280;47610;52.252;20.922;2023-04-03T12:07:14;101066.52;;;8.15;32.38
61697;BME280;47610;52.252;20.922;2023-04-03T12:12:32;101064.56;;;8.34;32.57
61697;BME280;47610;52.252;20.922;2023-04-03T12:17:38;101061.09;;;8.55;32.72
61697;BME280;47610;52.252;20.922;2023-04-03T12:23:24;101054.70;;;8.63;33.21
61697;BME280;47610;52.252;20.922;2023-04-03T12:28:29;101060.27;;;8.42;33.53
61697;BME280;47610;52.252;20.922;2023-04-03T12:33:33;101061.58;;;8.36;32.80
61697;BME280;47610;52.252;20.922;2023-04-03T12:39:00;101056.23;;;8.22;33.29
61697;BME280;47610;52.252;20.922;2023-04-03T12:44:30;101053.96;;;8.39;33.88
61697;BME280;47610;52.252;20.922;2023-04-03T12:49:40;101057.60;;;8.38;33.57
61697;BME280;47610;52.252;20.922;2023-04-03T12:54:47;101060.41;;;8.14;33.27
61697;BME280;47610;52.252;20.922;2023-04-03T12:59:53;101062.88;;;7.80;33.81
61697;BME280;47610;52.252;20.922;2023-04-03T13:04:55;101059.14;;;7.55;33.43
61697;BME280;47610;52.252;20.922;2023-04-03T13:10:13;101054.70;;;7.62;35.53
61697;BME280;47610;52.252;20.922;2023-04-03T13:15:20;101062.70;;;7.67;35.68
61697;BME280;47610;52.252;20.922;2023-04-03T13:20:26;101063.00;;;7.58;34.97
61697;BME280;47610;52.252;20.922;2023-04-03T13:25:33;101058.19;;;7.45;35.26
61697;BME280;47610;52.252;20.922;2023-04-03T13:30:39;101057.22;;;7.33;36.39
61697;BME280;47610;52.252;20.922;2023-04-03T13:35:43;101053.48;;;7.28;36.88
61697;BME280;47610;52.252;20.922;2023-04-03T13:40:51;101055.27;;;7.23;37.18
61697;BME280;47610;52.252;20.922;2023-04-03T13:46:24;101054.11;;;7.30;36.34
61697;BME280;47610;52.252;20.922;2023-04-03T13:51:30;101047.45;;;7.49;36.19
61697;BME280;47610;52.252;20.922;2023-04-03T13:56:35;101045.25;;;7.56;35.59
61697;BME280;47610;52.252;20.922;2023-04-03T14:01:47;101044.81;;;7.56;35.61
61697;BME280;47610;52.252;20.922;2023-04-03T14:06:51;101043.98;;;7.43;35.00
61697;BME280;47610;52.252;20.922;2023-04-03T14:11:57;101048.27;;;7.31;36.19
61697;BME280;47610;52.252;20.922;2023-04-03T14:17:09;101046.67;;;7.12;36.39
61697;BME280;47610;52.252;20.922;2023-04-03T14:22:17;101043.55;;;6.98;37.33
61697;BME280;47610;52.252;20.922;2023-04-03T14:27:23;101040.73;;;6.91;37.32
61697;BME280;47610;52.252;20.922;2023-04-03T14:32:27;101038.86;;;6.69;37.76
61697;BME280;47610;52.252;20.922;2023-04-03T14:37:31;101041.23;;;6.64;39.10
61697;BME280;47610;52.252;20.922;2023-04-03T14:42:37;101041.44;;;6.65;39.15
61697;BME280;47610;52.252;20.922;2023-04-03T14:47:44;101041.94;;;6.53;40.39
61697;BME280;47610;52.252;20.922;2023-04-03T14:52:50;101044.73;;;6.43;42.06
61697;BME280;47610;52.252;20.922;2023-04-03T14:57:54;101042.77;;;6.31;42.69
61697;BME280;47610;52.252;20.922;2023-04-03T15:02:58;101047.30;;;6.21;43.25
61697;BME280;47610;52.252;20.922;2023-04-03T15:08:02;101052.59;;;6.26;44.38
61697;BME280;47610;52.252;20.922;2023-04-03T15:13:05;101046.55;;;6.30;45.62
61697;BME280;47610;52.252;20.922;2023-04-03T15:18:14;101052.38;;;6.26;44.31
61697;BME280;47610;52.252;20.922;2023-04-03T15:23:19;101052.28;;;6.04;42.95
61697;BME280;47610;52.252;20.922;2023-04-03T15:28:26;101055.94;;;5.84;45.14
61697;BME280;47610;52.252;20.922;2023-04-03T15:33:32;101059.25;;;5.69;46.25
61697;BME280;47610;52.252;20.922;2023-04-03T15:38:35;101059.16;;;5.54;47.14
61697;BME280;47610;52.252;20.922;2023-04-03T15:43:39;101060.42;;;5.45;47.94
61697;BME280;47610;52.252;20.922;2023-04-03T15:48:43;101065.05;;;5.30;47.99
61697;BME280;47610;52.252;20.922;2023-04-03T15:53:46;101067.67;;;5.19;50.07
61697;BME280;47610;52.252;20.922;2023-04-03T15:58:49;101058.81;;;5.12;51.48
61697;BME280;47610;52.252;20.922;2023-04-03T16:03:53;101061.20;;;5.10;51.93
61697;BME280;47610;52.252;20.922;2023-04-03T16:08:56;101061.08;;;5.03;52.70
61697;BME280;47610;52.252;20.922;2023-04-03T16:14:00;101062.59;;;4.93;53.13
61697;BME280;47610;52.252;20.922;2023-04-03T16:19:04;101068.02;;;4.86;53.94
61697;BME280;47610;52.252;20.922;2023-04-03T16:24:08;101060.12;;;4.82;54.61
61697;BME280;47610;52.252;20.922;2023-04-03T16:29:12;101056.50;;;4.78;54.73
61697;BME280;47610;52.252;20.922;2023-04-03T16:34:15;101055.86;;;4.72;54.19
61697;BME280;47610;52.252;20.922;2023-04-03T16:39:18;101058.98;;;4.64;52.99
61697;BME280;47610;52.252;20.922;2023-04-03T16:44:22;101061.96;;;4.56;53.09
61697;BME280;47610;52.252;20.922;2023-04-03T16:49:26;101061.38;;;4.49;53.63
61697;BME280;47610;52.252;20.922;2023-04-03T16:54:30;101069.60;;;4.41;54.59
61697;BME280;47610;52.252;20.922;2023-04-03T16:59:33;101071.54;;;4.32;55.93
61697;BME280;47610;52.252;20.922;2023-04-03T17:04:36;101073.58;;;4.26;56.46
61697;BME280;47610;52.252;20.922;2023-04-03T17:09:40;101078.56;;;4.19;56.71
61697;BME280;47610;52.252;20.922;2023-04-03T17:14:44;101080.22;;;4.10;58.20
61697;BME280;47610;52.252;20.922;2023-04-03T17:19:47;101085.85;;;4.08;59.34
61697;BME280;47610;52.252;20.922;2023-04-03T17:24:50;101088.94;;;4.04;61.13
61697;BME280;47610;52.252;20.922;2023-04-03T17:29:54;101091.55;;;3.99;61.34
61697;BME280;47610;52.252;20.922;2023-04-03T17:34:57;101090.53;;;3.90;60.89
61697;BME280;47610;52.252;20.922;2023-04-03T17:40:01;101098.67;;;3.83;59.92
61697;BME280;47610;52.252;20.922;2023-04-03T17:45:08;101100.25;;;3.74;59.93
61697;BME280;47610;52.252;20.922;2023-04-03T17:50:13;101096.96;;;3.65;60.45
61697;BME280;47610;52.252;20.922;2023-04-03T17:55:16;101105.92;;;3.65;61.19
61697;BME280;47610;52.252;20.922;2023-04-03T18:00:21;101101.23;;;3.61;62.12
61697;BME280;47610;52.252;20.922;2023-04-03T18:05:27;101106.54;;;3.65;64.05
61697;BME280;47610;52.252;20.922;2023-04-03T18:10:31;101109.86;;;3.67;65.88
61697;BME280;47610;52.252;20.922;2023-04-03T18:15:35;101112.04;;;3.65;66.54
61697;BME280;47610;52.252;20.922;2023-04-03T18:20:39;101113.22;;;3.59;67.61
61697;BME280;47610;52.252;20.922;2023-04-03T18:25:42;101114.36;;;3.53;69.83
61697;BME280;47610;52.252;20.922;2023-04-03T18:30:45;101116.46;;;3.51;71.68
61697;BME280;47610;52.252;20.922;2023-04-03T18:35:49;101118.58;;;3.54;73.32
61697;BME280;47610;52.252;20.922;2023-04-03T18:40:53;101121.48;;;3.54;74.90
61697;BME280;47610;52.252;20.922;2023-04-03T18:45:56;101117.80;;;3.51;76.86
61697;BME280;47610;52.252;20.922;2023-04-03T18:51:00;101133.16;;;3.53;78.88
61697;BME280;47610;52.252;20.922;2023-04-03T18:56:03;101129.28;;;3.46;80.31
61697;BME280;47610;52.252;20.922;2023-04-03T19:01:07;101132.50;;;3.44;81.56
61697;BME280;47610;52.252;20.922;2023-04-03T19:06:10;101129.06;;;3.37;82.91
61697;BME280;47610;52.252;20.922;2023-04-03T19:11:13;101122.12;;;3.34;85.13
61697;BME280;47610;52.252;20.922;2023-04-03T19:16:18;101113.73;;;3.28;86.51
61697;BME280;47610;52.252;20.922;2023-04-03T19:21:21;101120.70;;;3.24;86.90
61697;BME280;47610;52.252;20.922;2023-04-03T19:26:25;101119.35;;;3.15;87.04
61697;BME280;47610;52.252;20.922;2023-04-03T19:31:29;101121.32;;;3.05;88.15
61697;BME280;47610;52.252;20.922;2023-04-03T19:36:33;101130.89;;;2.95;88.68
61697;BME280;47610;52.252;20.922;2023-04-03T19:41:41;101134.89;;;2.89;89.75
61697;BME280;47610;52.252;20.922;2023-04-03T19:46:44;101137.64;;;2.86;90.39
61697;BME280;47610;52.252;20.922;2023-04-03T19:51:47;101138.31;;;2.84;91.29
61697;BME280;47610;52.252;20.922;2023-04-03T19:56:52;101141.58;;;2.84;92.80
61697;BME280;47610;52.252;20.922;2023-04-03T20:01:54;101143.45;;;2.85;95.65
61697;BME280;47610;52.252;20.922;2023-04-03T20:06:57;101144.50;;;2.82;95.08
61697;BME280;47610;52.252;20.922;2023-04-03T20:12:00;101145.37;;;2.78;95.06
61697;BME280;47610;52.252;20.922;2023-04-03T20:17:04;101146.10;;;2.70;94.15
61697;BME280;47610;52.252;20.922;2023-04-03T20:22:07;101139.84;;;2.62;95.50
61697;BME280;47610;52.252;20.922;2023-04-03T20:27:11;101147.04;;;2.59;96.59
61697;BME280;47610;52.252;20.922;2023-04-03T20:32:14;101146.14;;;2.54;97.19
61697;BME280;47610;52.252;20.922;2023-04-03T20:37:18;101146.78;;;2.46;97.33
61697;BME280;47610;52.252;20.922;2023-04-03T20:42:21;101147.38;;;2.39;97.73
61697;BME280;47610;52.252;20.922;2023-04-03T20:47:25;101145.80;;;2.31;98.72
61697;BME280;47610;52.252;20.922;2023-04-03T20:52:29;101152.54;;;2.24;99.97
61697;BME280;47610;52.252;20.922;2023-04-03T20:57:33;101150.23;;;2.16;100.00
61697;BME280;47610;52.252;20.922;2023-04-03T21:02:36;101152.29;;;2.07;100.00
61697;BME280;47610;52.252;20.922;2023-04-03T21:24:15;101152.26;;;1.75;100.00
61697;BME280;47610;52.252;20.922;2023-04-03T21:29:18;101150.96;;;1.69;100.00
61697;BME280;47610;52.252;20.922;2023-04-03T21:34:23;101151.48;;;1.64;100.00
61697;BME280;47610;52.252;20.922;2023-04-03T21:39:26;101158.09;;;1.61;100.00
61697;BME280;47610;52.252;20.922;2023-04-03T21:44:31;101156.86;;;1.58;100.00
61697;BME280;47610;52.252;20.922;2023-04-03T21:49:34;101153.88;;;1.56;100.00
61697;BME280;47610;52.252;20.922;2023-04-03T21:54:37;101153.95;;;1.52;100.00
61697;BME280;47610;52.252;20.922;2023-04-03T21:59:40;101162.89;;;1.50;100.00
61697;BME280;47610;52.252;20.922;2023-04-03T22:04:44;101160.86;;;1.47;100.00
61697;BME280;47610;52.252;20.922;2023-04-03T22:09:47;101152.59;;;1.44;100.00
61697;BME280;47610;52.252;20.922;2023-04-03T22:14:50;101155.54;;;1.44;100.00
61697;BME280;47610;52.252;20.922;2023-04-03T22:19:54;101156.72;;;1.40;100.00
61697;BME280;47610;52.252;20.922;2023-04-03T22:24:57;101155.02;;;1.36;100.00
61697;BME280;47610;52.252;20.922;2023-04-03T22:30:00;101156.86;;;1.31;100.00
61697;BME280;47610;52.252;20.922;2023-04-03T22:35:07;101155.50;;;1.27;100.00
61697;BME280;47610;52.252;20.922;2023-04-03T22:40:12;101150.40;;;1.23;100.00
61697;BME280;47610;52.252;20.922;2023-04-03T22:45:18;101145.77;;;1.17;100.00
61697;BME280;47610;52.252;20.922;2023-04-03T22:50:21;101140.38;;;1.04;100.00
61697;BME280;47610;52.252;20.922;2023-04-03T22:55:25;101139.90;;;1.01;100.00
61697;BME280;47610;52.252;20.922;2023-04-03T23:00:28;101132.39;;;0.93;100.00
61697;BME280;47610;52.252;20.922;2023-04-03T23:05:31;101135.16;;;0.81;100.00
61697;BME280;47610;52.252;20.922;2023-04-03T23:10:35;101137.84;;;0.73;100.00
61697;BME280;47610;52.252;20.922;2023-04-03T23:15:40;101133.87;;;0.65;100.00
61697;BME280;47610;52.252;20.922;2023-04-03T23:20:43;101132.90;;;0.60;100.00
61697;BME280;47610;52.252;20.922;2023-04-03T23:25:54;101126.13;;;0.58;100.00
61697;BME280;47610;52.252;20.922;2023-04-03T23:31:01;101126.73;;;0.56;100.00
61697;BME280;47610;52.252;20.922;2023-04-03T23:36:12;101127.48;;;0.53;100.00
61697;BME280;47610;52.252;20.922;2023-04-03T23:41:15;101123.73;;;0.45;100.00
61697;BME280;47610;52.252;20.922;2023-04-03T23:46:19;101116.71;;;0.34;100.00
61697;BME280;47610;52.252;20.922;2023-04-03T23:51:22;101118.33;;;0.25;100.00
61697;BME280;47610;52.252;20.922;2023-04-03T23:56:25;101112.16;;;0.15;100.00
